sensor_id;sensor_type;location;lat;lon;timestamp;pressure;altitude;pressure_sealevel;temperature;humidity
52249;BME280;38541;48.130;8.378;2023-06-14T00:01:14;92349.91;;;12.20;46.46
52249;BME280;38541;48.130;8.378;2023-06-14T00:03:40;92345.84;;;12.09;46.70
52249;BME280;38541;48.130;8.378;2023-06-14T00:06:07;92351.66;;;12.01;46.89
52249;BME280;38541;48.130;8.378;2023-06-14T00:08:33;92343.25;;;12.04;47.26
52249;BME280;38541;48.130;8.378;2023-06-14T00:11:01;92334.59;;;11.98;47.17
52249;BME280;38541;48.130;8.378;2023-06-14T00:13:27;92336.56;;;11.87;47.46
52249;BME280;38541;48.130;8.378;2023-06-14T00:15:54;92332.38;;;11.86;47.52
52249;BME280;38541;48.130;8.378;2023-06-14T00:18:21;92327.63;;;11.83;47.59
52249;BME280;38541;48.130;8.378;2023-06-14T00:20:50;92331.41;;;11.77;47.58
52249;BME280;38541;48.130;8.378;2023-06-14T00:23:18;92338.72;;;11.80;47.31
52249;BME280;38541;48.130;8.378;2023-06-14T00:25:45;92339.63;;;11.70;48.34
52249;BME280;38541;48.130;8.378;2023-06-14T00:28:11;92334.34;;;11.70;48.01
52249;BME280;38541;48.130;8.378;2023-06-14T00:30:38;92333.34;;;11.66;48.12
52249;BME280;38541;48.130;8.378;2023-06-14T00:33:05;92324.72;;;11.60;47.82
52249;BME280;38541;48.130;8.378;2023-06-14T00:35:31;92323.69;;;11.56;48.27
52249;BME280;38541;48.130;8.378;2023-06-14T00:37:58;92324.81;;;11.50;48.80
52249;BME280;38541;48.130;8.378;2023-06-14T00:40:25;92322.75;;;11.47;48.56
52249;BME280;38541;48.130;8.378;2023-06-14T00:42:52;92328.53;;;11.44;48.77
52249;BME280;38541;48.130;8.378;2023-06-14T00:45:19;92332.06;;;11.34;48.83
52249;BME280;38541;48.130;8.378;2023-06-14T00:47:46;92332.91;;;11.29;49.38
52249;BME280;38541;48.130;8.378;2023-06-14T00:50:15;92321.34;;;11.25;49.33
52249;BME280;38541;48.130;8.378;2023-06-14T00:52:42;92330.34;;;11.19;49.16
52249;BME280;38541;48.130;8.378;2023-06-14T00:55:09;92332.97;;;11.19;49.01
52249;BME280;38541;48.130;8.378;2023-06-14T00:57:35;92324.06;;;11.15;48.96
52249;BME280;38541;48.130;8.378;2023-06-14T01:00:05;92332.00;;;11.09;49.32
52249;BME280;38541;48.130;8.378;2023-06-14T01:02:37;92323.38;;;11.04;49.49
52249;BME280;38541;48.130;8.378;2023-06-14T01:05:06;92322.56;;;11.03;49.58
52249;BME280;38541;48.130;8.378;2023-06-14T01:10:39;92323.59;;;11.07;49.19
52249;BME280;38541;48.130;8.378;2023-06-14T01:15:54;92327.91;;;10.93;49.61
52249;BME280;38541;48.130;8.378;2023-06-14T01:18:22;92325.09;;;10.84;50.03
52249;BME280;38541;48.130;8.378;2023-06-14T01:20:50;92324.09;;;10.75;50.46
52249;BME280;38541;48.130;8.378;2023-06-14T01:23:18;92323.31;;;10.74;49.91
52249;BME280;38541;48.130;8.378;2023-06-14T01:25:45;92320.19;;;10.67;50.32
52249;BME280;38541;48.130;8.378;2023-06-14T01:28:15;92323.38;;;10.64;50.41
52249;BME280;38541;48.130;8.378;2023-06-14T01:30:44;92324.97;;;10.60;50.09
52249;BME280;38541;48.130;8.378;2023-06-14T01:33:24;92325.75;;;10.60;50.60
52249;BME280;38541;48.130;8.378;2023-06-14T01:35:53;92331.31;;;10.53;50.75
52249;BME280;38541;48.130;8.378;2023-06-14T01:38:21;92318.19;;;10.48;50.68
52249;BME280;38541;48.130;8.378;2023-06-14T01:40:50;92319.81;;;10.39;50.97
52249;BME280;38541;48.130;8.378;2023-06-14T01:43:18;92319.56;;;10.35;51.10
52249;BME280;38541;48.130;8.378;2023-06-14T01:45:47;92322.47;;;10.34;51.30
52249;BME280;38541;48.130;8.378;2023-06-14T01:48:15;92325.59;;;10.36;51.07
52249;BME280;38541;48.130;8.378;2023-06-14T01:50:42;92318.25;;;10.38;51.15
52249;BME280;38541;48.130;8.378;2023-06-14T01:53:09;92325.06;;;10.39;51.13
52249;BME280;38541;48.130;8.378;2023-06-14T01:55:36;92326.94;;;10.28;51.73
52249;BME280;38541;48.130;8.378;2023-06-14T01:58:07;92327.50;;;10.25;51.68
52249;BME280;38541;48.130;8.378;2023-06-14T02:00:34;92318.81;;;10.24;51.31
52249;BME280;38541;48.130;8.378;2023-06-14T02:03:01;92324.63;;;10.21;51.59
52249;BME280;38541;48.130;8.378;2023-06-14T02:05:28;92318.09;;;10.13;51.75
52249;BME280;38541;48.130;8.378;2023-06-14T02:07:56;92320.97;;;10.12;51.83
52249;BME280;38541;48.130;8.378;2023-06-14T02:10:22;92328.31;;;10.10;52.05
52249;BME280;38541;48.130;8.378;2023-06-14T02:12:49;92335.16;;;10.11;51.99
52249;BME280;38541;48.130;8.378;2023-06-14T02:15:16;92322.53;;;10.13;51.99
52249;BME280;38541;48.130;8.378;2023-06-14T02:17:46;92327.00;;;10.12;52.16
52249;BME280;38541;48.130;8.378;2023-06-14T02:20:16;92330.47;;;10.03;52.80
52249;BME280;38541;48.130;8.378;2023-06-14T02:22:44;92326.59;;;9.90;52.47
52249;BME280;38541;48.130;8.378;2023-06-14T02:25:14;92326.28;;;9.91;52.50
52249;BME280;38541;48.130;8.378;2023-06-14T02:27:42;92326.84;;;9.88;53.11
52249;BME280;38541;48.130;8.378;2023-06-14T02:30:10;92329.47;;;9.83;53.23
52249;BME280;38541;48.130;8.378;2023-06-14T02:32:36;92331.31;;;9.82;53.53
52249;BME280;38541;48.130;8.378;2023-06-14T02:35:04;92325.53;;;9.80;53.53
52249;BME280;38541;48.130;8.378;2023-06-14T02:37:31;92327.13;;;9.76;53.61
52249;BME280;38541;48.130;8.378;2023-06-14T02:39:58;92327.16;;;9.71;53.27
52249;BME280;38541;48.130;8.378;2023-06-14T02:42:25;92331.06;;;9.74;53.40
52249;BME280;38541;48.130;8.378;2023-06-14T02:44:51;92323.75;;;9.70;53.65
52249;BME280;38541;48.130;8.378;2023-06-14T02:47:20;92327.41;;;9.69;53.13
52249;BME280;38541;48.130;8.378;2023-06-14T02:49:46;92329.00;;;9.65;53.16
52249;BME280;38541;48.130;8.378;2023-06-14T02:52:14;92329.00;;;9.65;53.41
52249;BME280;38541;48.130;8.378;2023-06-14T02:54:40;92325.34;;;9.61;53.77
52249;BME280;38541;48.130;8.378;2023-06-14T02:57:09;92321.16;;;9.60;53.60
52249;BME280;38541;48.130;8.378;2023-06-14T02:59:37;92325.88;;;9.58;53.74
52249;BME280;38541;48.130;8.378;2023-06-14T03:02:11;92328.50;;;9.58;53.25
52249;BME280;38541;48.130;8.378;2023-06-14T03:04:38;92331.91;;;9.59;53.54
52249;BME280;38541;48.130;8.378;2023-06-14T03:07:09;92332.97;;;9.52;53.67
52249;BME280;38541;48.130;8.378;2023-06-14T03:09:39;92338.22;;;9.52;53.41
52249;BME280;38541;48.130;8.378;2023-06-14T03:12:08;92338.22;;;9.42;54.10
52249;BME280;38541;48.130;8.378;2023-06-14T03:14:36;92337.44;;;9.47;54.15
52249;BME280;38541;48.130;8.378;2023-06-14T03:17:03;92348.19;;;9.50;54.52
52249;BME280;38541;48.130;8.378;2023-06-14T03:19:33;92348.97;;;9.51;54.95
52249;BME280;38541;48.130;8.378;2023-06-14T03:22:01;92348.41;;;9.54;54.30
52249;BME280;38541;48.130;8.378;2023-06-14T03:24:30;92350.00;;;9.55;54.60
52249;BME280;38541;48.130;8.378;2023-06-14T03:27:08;92349.50;;;9.58;54.71
52249;BME280;38541;48.130;8.378;2023-06-14T03:29:38;92353.44;;;9.50;54.46
52249;BME280;38541;48.130;8.378;2023-06-14T03:32:06;92346.34;;;9.46;54.67
52249;BME280;38541;48.130;8.378;2023-06-14T03:34:36;92349.75;;;9.41;54.98
52249;BME280;38541;48.130;8.378;2023-06-14T03:37:07;92354.75;;;9.42;54.25
52249;BME280;38541;48.130;8.378;2023-06-14T03:39:33;92352.91;;;9.38;54.47
52249;BME280;38541;48.130;8.378;2023-06-14T03:42:00;92356.56;;;9.42;54.40
52249;BME280;38541;48.130;8.378;2023-06-14T03:44:27;92358.66;;;9.40;54.39
52249;BME280;38541;48.130;8.378;2023-06-14T03:46:54;92359.19;;;9.37;53.99
52249;BME280;38541;48.130;8.378;2023-06-14T03:49:21;92363.41;;;9.38;53.95
52249;BME280;38541;48.130;8.378;2023-06-14T03:51:48;92361.56;;;9.38;54.13
52249;BME280;38541;48.130;8.378;2023-06-14T03:54:21;92363.38;;;9.43;54.33
52249;BME280;38541;48.130;8.378;2023-06-14T03:56:52;92364.94;;;9.44;54.29
52249;BME280;38541;48.130;8.378;2023-06-14T03:59:18;92368.66;;;9.48;54.72
52249;BME280;38541;48.130;8.378;2023-06-14T04:01:45;92371.25;;;9.43;54.62
52249;BME280;38541;48.130;8.378;2023-06-14T04:04:14;92373.09;;;9.37;54.05
52249;BME280;38541;48.130;8.378;2023-06-14T04:06:42;92374.13;;;9.36;54.62
52249;BME280;38541;48.130;8.378;2023-06-14T04:09:10;92372.06;;;9.38;53.96
52249;BME280;38541;48.130;8.378;2023-06-14T04:11:37;92369.41;;;9.33;54.42
52249;BME280;38541;48.130;8.378;2023-06-14T04:14:03;92371.28;;;9.33;54.26
52249;BME280;38541;48.130;8.378;2023-06-14T04:16:30;92371.50;;;9.36;54.25
52249;BME280;38541;48.130;8.378;2023-06-14T04:18:58;92377.81;;;9.35;53.92
52249;BME280;38541;48.130;8.378;2023-06-14T04:21:25;92374.94;;;9.42;53.99
52249;BME280;38541;48.130;8.378;2023-06-14T04:23:52;92374.13;;;9.47;54.74
52249;BME280;38541;48.130;8.378;2023-06-14T04:26:22;92379.38;;;9.52;54.51
52249;BME280;38541;48.130;8.378;2023-06-14T04:28:52;92375.94;;;9.62;54.11
52249;BME280;38541;48.130;8.378;2023-06-14T04:31:20;92379.88;;;9.64;54.24
52249;BME280;38541;48.130;8.378;2023-06-14T04:33:51;92384.63;;;9.62;54.83
52249;BME280;38541;48.130;8.378;2023-06-14T04:36:21;92386.72;;;9.65;53.84
52249;BME280;38541;48.130;8.378;2023-06-14T04:38:49;92384.59;;;9.73;54.03
52249;BME280;38541;48.130;8.378;2023-06-14T04:41:16;92383.53;;;9.79;53.68
52249;BME280;38541;48.130;8.378;2023-06-14T04:43:44;92388.78;;;9.84;54.38
52249;BME280;38541;48.130;8.378;2023-06-14T04:46:15;92388.50;;;9.80;54.69
52249;BME280;38541;48.130;8.378;2023-06-14T04:48:42;92396.41;;;9.85;54.15
52249;BME280;38541;48.130;8.378;2023-06-14T04:51:09;92393.97;;;9.94;54.50
52249;BME280;38541;48.130;8.378;2023-06-14T04:53:36;92401.31;;;10.03;53.94
52249;BME280;38541;48.130;8.378;2023-06-14T04:56:04;92394.22;;;10.08;53.89
52249;BME280;38541;48.130;8.378;2023-06-14T04:58:32;92395.53;;;10.06;53.96
52249;BME280;38541;48.130;8.378;2023-06-14T05:00:59;92398.41;;;10.14;53.86
52249;BME280;38541;48.130;8.378;2023-06-14T05:03:26;92398.66;;;10.18;54.17
52249;BME280;38541;48.130;8.378;2023-06-14T05:05:54;92404.91;;;10.33;54.42
52249;BME280;38541;48.130;8.378;2023-06-14T05:08:21;92397.28;;;10.41;53.63
52249;BME280;38541;48.130;8.378;2023-06-14T05:10:52;92397.50;;;10.50;53.54
52249;BME280;38541;48.130;8.378;2023-06-14T05:13:19;92396.69;;;10.55;54.07
52249;BME280;38541;48.130;8.378;2023-06-14T05:15:46;92399.03;;;10.62;53.72
52249;BME280;38541;48.130;8.378;2023-06-14T05:18:13;92393.22;;;10.70;53.17
52249;BME280;38541;48.130;8.378;2023-06-14T05:20:41;92401.03;;;10.80;52.85
52249;BME280;38541;48.130;8.378;2023-06-14T05:23:09;92397.03;;;10.93;53.20
52249;BME280;38541;48.130;8.378;2023-06-14T05:25:42;92400.41;;;10.99;52.95
52249;BME280;38541;48.130;8.378;2023-06-14T05:28:09;92399.31;;;11.05;53.43
52249;BME280;38541;48.130;8.378;2023-06-14T05:30:38;92406.63;;;11.13;52.82
52249;BME280;38541;48.130;8.378;2023-06-14T05:33:04;92401.84;;;11.21;53.81
52249;BME280;38541;48.130;8.378;2023-06-14T05:35:31;92411.25;;;11.27;53.65
52249;BME280;38541;48.130;8.378;2023-06-14T05:37:58;92408.06;;;11.35;54.02
52249;BME280;38541;48.130;8.378;2023-06-14T05:40:24;92408.53;;;11.42;54.26
52249;BME280;38541;48.130;8.378;2023-06-14T05:42:51;92407.94;;;11.51;54.46
52249;BME280;38541;48.130;8.378;2023-06-14T05:45:17;92407.34;;;11.59;54.51
52249;BME280;38541;48.130;8.378;2023-06-14T05:47:44;92417.28;;;11.67;54.91
52249;BME280;38541;48.130;8.378;2023-06-14T05:50:11;92411.41;;;11.76;54.67
52249;BME280;38541;48.130;8.378;2023-06-14T05:52:37;92411.34;;;11.86;54.60
52249;BME280;38541;48.130;8.378;2023-06-14T05:55:04;92414.41;;;11.93;54.94
52249;BME280;38541;48.130;8.378;2023-06-14T05:57:31;92414.56;;;12.07;55.37
52249;BME280;38541;48.130;8.378;2023-06-14T05:59:57;92418.94;;;12.17;54.85
52249;BME280;38541;48.130;8.378;2023-06-14T06:02:24;92416.41;;;12.31;54.56
52249;BME280;38541;48.130;8.378;2023-06-14T06:04:51;92409.72;;;12.44;54.42
52249;BME280;38541;48.130;8.378;2023-06-14T06:07:18;92416.41;;;12.55;54.00
52249;BME280;38541;48.130;8.378;2023-06-14T06:09:44;92411.03;;;12.66;54.06
52249;BME280;38541;48.130;8.378;2023-06-14T06:12:11;92411.94;;;12.75;53.37
52249;BME280;38541;48.130;8.378;2023-06-14T06:14:37;92412.31;;;12.88;53.49
52249;BME280;38541;48.130;8.378;2023-06-14T06:17:04;92416.69;;;12.97;52.42
52249;BME280;38541;48.130;8.378;2023-06-14T06:19:31;92414.91;;;13.12;51.42
52249;BME280;38541;48.130;8.378;2023-06-14T06:21:57;92421.81;;;13.27;51.91
52249;BME280;38541;48.130;8.378;2023-06-14T06:24:24;92418.47;;;13.40;51.13
52249;BME280;38541;48.130;8.378;2023-06-14T06:26:50;92419.03;;;13.57;49.00
52249;BME280;38541;48.130;8.378;2023-06-14T06:29:17;92419.38;;;13.69;49.71
52249;BME280;38541;48.130;8.378;2023-06-14T06:31:43;92428.41;;;13.82;49.15
52249;BME280;38541;48.130;8.378;2023-06-14T06:34:11;92421.28;;;13.96;48.08
52249;BME280;38541;48.130;8.378;2023-06-14T06:36:38;92418.47;;;14.07;47.21
52249;BME280;38541;48.130;8.378;2023-06-14T06:39:04;92414.25;;;14.20;45.67
52249;BME280;38541;48.130;8.378;2023-06-14T06:41:37;92428.59;;;14.47;44.07
52249;BME280;38541;48.130;8.378;2023-06-14T06:44:06;92425.16;;;14.60;42.46
52249;BME280;38541;48.130;8.378;2023-06-14T06:46:33;92431.31;;;14.83;42.22
52249;BME280;38541;48.130;8.378;2023-06-14T06:49:01;92431.25;;;14.89;42.25
52249;BME280;38541;48.130;8.378;2023-06-14T06:51:27;92433.97;;;14.97;42.84
52249;BME280;38541;48.130;8.378;2023-06-14T06:53:54;92434.03;;;15.06;42.15
52249;BME280;38541;48.130;8.378;2023-06-14T06:56:21;92436.75;;;15.15;42.23
52249;BME280;38541;48.130;8.378;2023-06-14T06:58:52;92440.47;;;15.28;41.99
52249;BME280;38541;48.130;8.378;2023-06-14T07:01:19;92441.78;;;15.39;40.90
52249;BME280;38541;48.130;8.378;2023-06-14T07:03:46;92443.75;;;15.48;41.39
52249;BME280;38541;48.130;8.378;2023-06-14T07:06:12;92439.88;;;15.54;41.22
52249;BME280;38541;48.130;8.378;2023-06-14T07:08:39;92443.69;;;15.62;40.29
52249;BME280;38541;48.130;8.378;2023-06-14T07:11:05;92443.44;;;15.72;40.02
52249;BME280;38541;48.130;8.378;2023-06-14T07:13:32;92448.78;;;15.81;39.67
52249;BME280;38541;48.130;8.378;2023-06-14T07:15:59;92445.94;;;15.91;38.89
52249;BME280;38541;48.130;8.378;2023-06-14T07:18:27;92450.50;;;16.00;39.28
52249;BME280;38541;48.130;8.378;2023-06-14T07:20:54;92452.44;;;16.08;39.01
52249;BME280;38541;48.130;8.378;2023-06-14T07:23:20;92456.50;;;16.14;38.84
52249;BME280;38541;48.130;8.378;2023-06-14T07:25:47;92453.13;;;16.22;38.64
52249;BME280;38541;48.130;8.378;2023-06-14T07:28:14;92461.91;;;16.32;38.79
52249;BME280;38541;48.130;8.378;2023-06-14T07:30:40;92446.03;;;16.40;39.50
52249;BME280;38541;48.130;8.378;2023-06-14T07:33:07;92453.84;;;16.46;38.03
52249;BME280;38541;48.130;8.378;2023-06-14T07:35:34;92458.44;;;16.54;37.07
52249;BME280;38541;48.130;8.378;2023-06-14T07:38:01;92458.75;;;16.61;36.70
52249;BME280;38541;48.130;8.378;2023-06-14T07:40:28;92461.25;;;16.66;36.97
52249;BME280;38541;48.130;8.378;2023-06-14T07:42:54;92462.38;;;16.74;36.23
52249;BME280;38541;48.130;8.378;2023-06-14T07:45:21;92466.47;;;16.80;36.57
52249;BME280;38541;48.130;8.378;2023-06-14T07:47:47;92466.81;;;16.88;37.08
52249;BME280;38541;48.130;8.378;2023-06-14T07:50:14;92470.88;;;16.94;36.23
52249;BME280;38541;48.130;8.378;2023-06-14T07:52:41;92466.25;;;17.00;36.96
52249;BME280;38541;48.130;8.378;2023-06-14T07:55:07;92459.38;;;17.07;36.21
52249;BME280;38541;48.130;8.378;2023-06-14T07:57:34;92465.00;;;17.15;36.71
52249;BME280;38541;48.130;8.378;2023-06-14T08:00:02;92460.50;;;17.24;36.77
52249;BME280;38541;48.130;8.378;2023-06-14T08:02:37;92468.31;;;17.29;36.94
52249;BME280;38541;48.130;8.378;2023-06-14T08:05:04;92471.16;;;17.33;36.09
52249;BME280;38541;48.130;8.378;2023-06-14T08:07:30;92470.84;;;17.34;35.96
52249;BME280;38541;48.130;8.378;2023-06-14T08:09:57;92463.81;;;17.38;36.09
52249;BME280;38541;48.130;8.378;2023-06-14T08:12:23;92463.38;;;17.45;35.63
52249;BME280;38541;48.130;8.378;2023-06-14T08:14:50;92468.69;;;17.54;36.20
52249;BME280;38541;48.130;8.378;2023-06-14T08:17:34;92472.91;;;17.55;35.03
52249;BME280;38541;48.130;8.378;2023-06-14T08:20:00;92474.47;;;17.56;35.80
52249;BME280;38541;48.130;8.378;2023-06-14T08:22:27;92474.28;;;17.61;34.90
52249;BME280;38541;48.130;8.378;2023-06-14T08:24:55;92479.44;;;17.66;35.41
52249;BME280;38541;48.130;8.378;2023-06-14T08:27:21;92476.03;;;17.66;33.88
52249;BME280;38541;48.130;8.378;2023-06-14T08:29:49;92478.22;;;17.73;33.20
52249;BME280;38541;48.130;8.378;2023-06-14T08:32:15;92480.72;;;17.78;33.30
52249;BME280;38541;48.130;8.378;2023-06-14T08:34:42;92476.63;;;17.80;33.33
52249;BME280;38541;48.130;8.378;2023-06-14T08:37:21;92479.28;;;17.89;33.54
52249;BME280;38541;48.130;8.378;2023-06-14T08:39:48;92484.44;;;17.94;32.51
52249;BME280;38541;48.130;8.378;2023-06-14T08:42:15;92484.78;;;18.02;32.30
52249;BME280;38541;48.130;8.378;2023-06-14T08:44:57;92482.91;;;18.11;32.00
52249;BME280;38541;48.130;8.378;2023-06-14T08:47:25;92488.22;;;18.11;31.46
52249;BME280;38541;48.130;8.378;2023-06-14T08:49:53;92491.19;;;18.09;30.87
52249;BME280;38541;48.130;8.378;2023-06-14T08:52:24;92487.88;;;18.21;32.02
52249;BME280;38541;48.130;8.378;2023-06-14T08:54:56;92494.91;;;18.26;31.83
52249;BME280;38541;48.130;8.378;2023-06-14T08:57:24;92495.22;;;18.24;31.35
52249;BME280;38541;48.130;8.378;2023-06-14T08:59:52;92486.31;;;18.20;30.85
52249;BME280;38541;48.130;8.378;2023-06-14T09:02:19;92494.91;;;18.26;31.50
52249;BME280;38541;48.130;8.378;2023-06-14T09:04:48;92496.78;;;18.25;31.42
52249;BME280;38541;48.130;8.378;2023-06-14T09:07:18;92501.78;;;18.36;31.24
52249;BME280;38541;48.130;8.378;2023-06-14T09:09:44;92498.00;;;18.46;30.93
52249;BME280;38541;48.130;8.378;2023-06-14T09:12:31;92504.69;;;18.52;30.29
52249;BME280;38541;48.130;8.378;2023-06-14T09:14:57;92508.91;;;18.62;30.86
52249;BME280;38541;48.130;8.378;2023-06-14T09:17:24;92505.13;;;18.63;29.09
52249;BME280;38541;48.130;8.378;2023-06-14T09:19:51;92509.69;;;18.62;30.55
52249;BME280;38541;48.130;8.378;2023-06-14T09:22:17;92506.25;;;18.62;30.30
52249;BME280;38541;48.130;8.378;2023-06-14T09:24:44;92493.53;;;18.76;31.16
52249;BME280;38541;48.130;8.378;2023-06-14T09:27:15;92510.09;;;18.82;31.19
52249;BME280;38541;48.130;8.378;2023-06-14T09:29:41;92501.78;;;18.83;31.39
52249;BME280;38541;48.130;8.378;2023-06-14T09:32:08;92502.72;;;18.88;31.52
52249;BME280;38541;48.130;8.378;2023-06-14T09:34:35;92495.00;;;18.95;32.48
52249;BME280;38541;48.130;8.378;2023-06-14T09:37:02;92503.78;;;18.95;31.58
52249;BME280;38541;48.130;8.378;2023-06-14T09:39:29;92503.44;;;18.97;32.02
52249;BME280;38541;48.130;8.378;2023-06-14T09:41:55;92496.72;;;19.08;32.63
52249;BME280;38541;48.130;8.378;2023-06-14T09:44:22;92507.63;;;19.16;32.63
52249;BME280;38541;48.130;8.378;2023-06-14T09:46:55;92500.47;;;19.07;31.48
52249;BME280;38541;48.130;8.378;2023-06-14T09:49:22;92515.81;;;19.10;31.96
52249;BME280;38541;48.130;8.378;2023-06-14T09:51:51;92512.19;;;19.15;32.52
52249;BME280;38541;48.130;8.378;2023-06-14T09:54:22;92513.88;;;19.20;32.00
52249;BME280;38541;48.130;8.378;2023-06-14T09:56:51;92513.06;;;19.28;32.03
52249;BME280;38541;48.130;8.378;2023-06-14T09:59:22;92520.94;;;19.46;31.71
52249;BME280;38541;48.130;8.378;2023-06-14T10:01:57;92521.50;;;19.51;32.26
52249;BME280;38541;48.130;8.378;2023-06-14T10:04:27;92522.00;;;19.53;31.88
52249;BME280;38541;48.130;8.378;2023-06-14T10:06:56;92518.69;;;19.57;32.03
52249;BME280;38541;48.130;8.378;2023-06-14T10:09:23;92521.50;;;19.51;31.85
52249;BME280;38541;48.130;8.378;2023-06-14T10:11:50;92512.78;;;19.72;32.14
52249;BME280;38541;48.130;8.378;2023-06-14T10:14:17;92515.75;;;19.71;31.01
52249;BME280;38541;48.130;8.378;2023-06-14T10:16:50;92499.78;;;19.71;31.73
52249;BME280;38541;48.130;8.378;2023-06-14T10:19:29;92505.50;;;19.81;31.53
52249;BME280;38541;48.130;8.378;2023-06-14T10:22:06;92506.94;;;20.00;32.41
52249;BME280;38541;48.130;8.378;2023-06-14T10:24:38;92514.59;;;20.23;31.99
52249;BME280;38541;48.130;8.378;2023-06-14T10:27:07;92512.72;;;20.23;31.43
52249;BME280;38541;48.130;8.378;2023-06-14T10:30:09;92504.28;;;20.34;31.97
52249;BME280;38541;48.130;8.378;2023-06-14T10:33:14;92497.56;;;20.49;32.96
52249;BME280;38541;48.130;8.378;2023-06-14T10:35:41;92508.38;;;20.65;32.23
52249;BME280;38541;48.130;8.378;2023-06-14T10:38:11;92509.84;;;20.75;31.75
52249;BME280;38541;48.130;8.378;2023-06-14T10:40:39;92504.59;;;20.66;32.07
52249;BME280;38541;48.130;8.378;2023-06-14T10:43:22;92505.31;;;20.88;31.92
52249;BME280;38541;48.130;8.378;2023-06-14T10:46:18;92507.41;;;20.82;31.31
52249;BME280;38541;48.130;8.378;2023-06-14T10:48:45;92506.00;;;20.97;31.89
52249;BME280;38541;48.130;8.378;2023-06-14T10:51:20;92509.91;;;21.12;32.16
52249;BME280;38541;48.130;8.378;2023-06-14T10:53:48;92501.31;;;21.31;30.56
52249;BME280;38541;48.130;8.378;2023-06-14T10:56:28;92508.22;;;21.45;31.05
52249;BME280;38541;48.130;8.378;2023-06-14T10:58:57;92499.09;;;21.71;31.86
52249;BME280;38541;48.130;8.378;2023-06-14T11:01:37;92496.72;;;21.82;29.56
52249;BME280;38541;48.130;8.378;2023-06-14T11:04:08;92504.97;;;22.05;30.74
52249;BME280;38541;48.130;8.378;2023-06-14T11:06:46;92495.09;;;22.21;29.67
52249;BME280;38541;48.130;8.378;2023-06-14T11:12:01;92494.00;;;22.51;29.69
52249;BME280;38541;48.130;8.378;2023-06-14T11:14:31;92501.88;;;22.60;30.83
52249;BME280;38541;48.130;8.378;2023-06-14T11:16:58;92504.00;;;22.54;28.18
52249;BME280;38541;48.130;8.378;2023-06-14T11:19:25;92498.09;;;22.93;29.44
52249;BME280;38541;48.130;8.378;2023-06-14T11:21:54;92503.44;;;23.25;29.13
52249;BME280;38541;48.130;8.378;2023-06-14T11:24:21;92501.56;;;23.09;28.26
52249;BME280;38541;48.130;8.378;2023-06-14T11:26:49;92505.38;;;23.41;28.30
52249;BME280;38541;48.130;8.378;2023-06-14T11:29:16;92508.91;;;23.29;27.41
52249;BME280;38541;48.130;8.378;2023-06-14T11:31:43;92510.81;;;23.28;27.54
52249;BME280;38541;48.130;8.378;2023-06-14T11:34:12;92512.28;;;23.42;27.37
52249;BME280;38541;48.130;8.378;2023-06-14T11:36:39;92507.31;;;23.60;28.30
52249;BME280;38541;48.130;8.378;2023-06-14T11:39:06;92491.31;;;23.63;27.44
52249;BME280;38541;48.130;8.378;2023-06-14T11:41:38;92494.84;;;23.87;26.71
52249;BME280;38541;48.130;8.378;2023-06-14T11:44:06;92493.16;;;23.79;26.41
52249;BME280;38541;48.130;8.378;2023-06-14T11:46:34;92500.13;;;23.84;26.02
52249;BME280;38541;48.130;8.378;2023-06-14T11:49:01;92494.00;;;23.63;26.24
52249;BME280;38541;48.130;8.378;2023-06-14T11:51:31;92497.34;;;23.96;26.89
52249;BME280;38541;48.130;8.378;2023-06-14T11:53:58;92492.22;;;24.07;25.71
52249;BME280;38541;48.130;8.378;2023-06-14T11:56:25;92486.41;;;24.25;26.53
52249;BME280;38541;48.130;8.378;2023-06-14T11:58:53;92489.63;;;24.54;26.51
52249;BME280;38541;48.130;8.378;2023-06-14T12:01:23;92477.03;;;24.77;25.63
52249;BME280;38541;48.130;8.378;2023-06-14T12:03:51;92488.31;;;24.67;25.92
52249;BME280;38541;48.130;8.378;2023-06-14T12:06:29;92485.38;;;24.96;24.14
52249;BME280;38541;48.130;8.378;2023-06-14T12:09:00;92475.34;;;24.92;25.46
52249;BME280;38541;48.130;8.378;2023-06-14T12:11:32;92479.69;;;25.24;26.48
52249;BME280;38541;48.130;8.378;2023-06-14T12:13:59;92472.81;;;25.27;25.63
52249;BME280;38541;48.130;8.378;2023-06-14T12:16:32;92478.19;;;25.50;25.39
52249;BME280;38541;48.130;8.378;2023-06-14T12:19:12;92466.75;;;25.33;25.33
52249;BME280;38541;48.130;8.378;2023-06-14T12:21:39;92478.69;;;25.59;25.06
52249;BME280;38541;48.130;8.378;2023-06-14T12:24:07;92474.09;;;25.63;23.87
52249;BME280;38541;48.130;8.378;2023-06-14T12:26:38;92474.31;;;25.78;24.69
52249;BME280;38541;48.130;8.378;2023-06-14T12:29:05;92486.06;;;25.97;23.69
52249;BME280;38541;48.130;8.378;2023-06-14T12:31:33;92478.69;;;25.90;24.71
52249;BME280;38541;48.130;8.378;2023-06-14T12:34:00;92482.66;;;25.69;23.78
52249;BME280;38541;48.130;8.378;2023-06-14T12:36:27;92484.53;;;25.96;25.22
52249;BME280;38541;48.130;8.378;2023-06-14T12:38:53;92476.22;;;26.08;25.15
52249;BME280;38541;48.130;8.378;2023-06-14T12:41:21;92480.25;;;26.21;24.74
52249;BME280;38541;48.130;8.378;2023-06-14T12:43:48;92488.69;;;26.20;23.13
52249;BME280;38541;48.130;8.378;2023-06-14T12:46:15;92491.28;;;25.82;23.57
52249;BME280;38541;48.130;8.378;2023-06-14T12:48:41;92489.44;;;25.59;24.29
52249;BME280;38541;48.130;8.378;2023-06-14T12:51:08;92498.03;;;26.30;24.41
52249;BME280;38541;48.130;8.378;2023-06-14T12:53:34;92485.00;;;27.15;23.04
52249;BME280;38541;48.130;8.378;2023-06-14T12:56:01;92489.63;;;28.52;22.19
52249;BME280;38541;48.130;8.378;2023-06-14T12:58:27;92497.50;;;32.21;19.09
52249;BME280;38541;48.130;8.378;2023-06-14T13:00:54;92502.16;;;34.53;15.12
52249;BME280;38541;48.130;8.378;2023-06-14T13:03:20;92506.19;;;36.01;15.24
52249;BME280;38541;48.130;8.378;2023-06-14T13:05:47;92500.25;;;37.43;13.67
52249;BME280;38541;48.130;8.378;2023-06-14T13:08:14;92492.50;;;38.47;14.15
52249;BME280;38541;48.130;8.378;2023-06-14T13:10:40;92489.97;;;37.82;12.63
52249;BME280;38541;48.130;8.378;2023-06-14T13:13:07;92484.91;;;37.81;12.88
52249;BME280;38541;48.130;8.378;2023-06-14T13:15:34;92486.84;;;38.29;12.27
52249;BME280;38541;48.130;8.378;2023-06-14T13:18:01;92481.47;;;39.01;12.72